This is the latest recevied weather packets stored in our database for station/object DB0ADS-6. If no packets are shown the sender has not sent any weather packets the latest 10 day(s).
| Time | Temp. | Humidity | Pressure | Rain* | Wind** | Luminosity | Snow |
|---|---|---|---|---|---|---|---|
| 1777972524 | 20° C | 56% | 1006.5 hPa | 0 mm | - | - | - |
| 1777972222 | 18.89° C | 58% | 1006.5 hPa | 0 mm | - | - | - |
| 1777971920 | 19.44° C | 56% | 1006.6 hPa | 0 mm | - | - | - |
| 1777971618 | 20° C | 54% | 1006.6 hPa | 0 mm | - | - | - |
| 1777971337 | 19.44° C | 55% | 1006.6 hPa | 0 mm | - | - | - |
| 1777971075 | 20° C | 57% | 1006.6 hPa | 0 mm | - | - | - |
| 1777970773 | 19.44° C | 60% | 1006.6 hPa | 0 mm | - | - | - |
| 1777970472 | 19.44° C | 60% | 1006.6 hPa | 0 mm | - | - | - |
| 1777970170 | 20° C | 59% | 1006.7 hPa | 0 mm | - | - | - |
| 1777969868 | 18.89° C | 61% | 1006.8 hPa | 0 mm | - | - | - |
| 1777969566 | 19.44° C | 61% | 1006.9 hPa | 0 mm | - | - | - |
| 1777969264 | 18.89° C | 60% | 1006.9 hPa | 0 mm | - | - | - |
| 1777968966 | 18.33° C | 61% | 1006.9 hPa | 0 mm | - | - | - |
| 1777968661 | 18.89° C | 61% | 1006.9 hPa | 0 mm | - | - | - |
| 1777968360 | 18.89° C | 60% | 1007 hPa | 0 mm | - | - | - |
| 1777968058 | 19.44° C | 60% | 1007 hPa | 0 mm | - | - | - |
| 1777967755 | 19.44° C | 58% | 1007 hPa | 0 mm | - | - | - |
| 1777967454 | 18.89° C | 60% | 1007.1 hPa | 0 mm | - | - | - |
| 1777967152 | 18.89° C | 62% | 1007.2 hPa | 0 mm | - | - | - |
| 1777966850 | 18.33° C | 64% | 1007.2 hPa | 0 mm | - | - | - |
| 1777966569 | 17.78° C | 66% | 1007.3 hPa | 0 mm | - | - | - |
| 1777966247 | 17.22° C | 68% | 1007.3 hPa | 0 mm | - | - | - |
| 1777965945 | 16.67° C | 69% | 1007.4 hPa | 0 mm | - | - | - |
| 1777965643 | 16.11° C | 71% | 1007.4 hPa | 0 mm | - | - | - |
| 1777965341 | 16.11° C | 73% | 1007.5 hPa | 0 mm | - | - | - |
* Rain latest hour (hover to see other rain measurements)
** Current wind speed in m/s (hover to see current wind gust speed)